createdAt,value
2019-05-06T00:01:33.996Z,66.92
2019-05-06T00:04:04.662Z,67.25
2019-05-06T00:06:34.563Z,68.43
2019-05-06T00:09:04.283Z,67.10
2019-05-06T00:11:34.538Z,66.62
2019-05-06T00:14:03.923Z,67.27
2019-05-06T00:16:34.700Z,67.01
2019-05-06T00:19:04.783Z,67.30
2019-05-06T00:21:35.268Z,68.19
2019-05-06T00:24:03.910Z,67.08
2019-05-06T00:26:34.121Z,67.71
2019-05-06T00:29:04.570Z,67.45
2019-05-06T00:31:34.593Z,67.44
2019-05-06T00:34:04.341Z,68.56
2019-05-06T00:36:34.499Z,67.68
2019-05-06T00:39:04.648Z,67.94
2019-05-06T00:41:36.437Z,67.77
2019-05-06T00:44:05.470Z,67.56
2019-05-06T00:46:34.477Z,67.49
2019-05-06T00:49:03.811Z,67.83
2019-05-06T00:51:33.907Z,67.10
2019-05-06T00:54:04.289Z,68.34
2019-05-06T00:56:34.087Z,67.87
2019-05-06T00:59:03.677Z,68.38
2019-05-06T01:01:34.276Z,68.74
2019-05-06T01:04:04.568Z,68.23
2019-05-06T01:06:34.415Z,68.56
2019-05-06T01:09:04.545Z,68.41
2019-05-06T01:11:34.575Z,67.71
2019-05-06T01:14:07.336Z,67.41
2019-05-06T01:16:35.658Z,68.44
2019-05-06T01:19:04.748Z,67.50
2019-05-06T01:21:34.398Z,68.29
2019-05-06T01:24:04.020Z,67.87
2019-05-06T01:26:33.737Z,68.38
2019-05-06T01:29:03.928Z,68.87
2019-05-06T01:31:42.028Z,70.74
2019-05-06T01:34:04.341Z,69.56
2019-05-06T01:36:34.267Z,69.40
2019-05-06T01:39:07.364Z,70.19
2019-05-06T01:41:53.689Z,70.34
2019-05-06T01:44:22.006Z,70.92
2019-05-06T01:46:50.331Z,69.76
2019-05-06T01:49:18.630Z,69.70
2019-05-06T01:51:47.007Z,70.84
2019-05-06T01:54:15.378Z,69.94
2019-05-06T01:56:44.404Z,71.38
2019-05-06T01:59:13.969Z,72.78
2019-05-06T02:01:56.423Z,73.05
2019-05-06T02:04:13.826Z,73.44
2019-05-06T02:06:43.829Z,72.62
2019-05-06T02:09:16.223Z,72.87
2019-05-06T02:11:47.740Z,72.81
2019-05-06T02:14:14.757Z,72.58
2019-05-06T02:16:43.714Z,73.68
2019-05-06T02:19:12.041Z,73.07
2019-05-06T02:21:43.848Z,74.13
2019-05-06T02:24:19.608Z,73.96
2019-05-06T02:26:48.053Z,73.97
2019-05-06T02:29:24.645Z,74.52
2019-05-06T02:32:21.082Z,74.44
2019-05-06T02:34:45.785Z,74.06
2019-05-06T02:37:15.859Z,74.45
2019-05-06T02:39:44.221Z,74.15
2019-05-06T02:42:13.210Z,73.79
2019-05-06T02:44:44.120Z,74.45
2019-05-06T02:47:28.568Z,74.89
2019-05-06T02:50:04.525Z,75.21
2019-05-06T02:52:33.002Z,74.48
2019-05-06T02:55:01.564Z,74.58
2019-05-06T02:57:33.251Z,74.83
2019-05-06T02:59:59.885Z,73.91
2019-05-06T03:02:42.108Z,74.85
2019-05-06T03:04:58.254Z,74.45
2019-05-06T03:07:26.582Z,74.99
2019-05-06T03:09:54.996Z,74.95
2019-05-06T03:12:25.003Z,75.25
2019-05-06T03:14:53.591Z,74.78
2019-05-06T03:17:23.495Z,75.41
2019-05-06T03:19:53.720Z,74.90
2019-05-06T03:22:35.644Z,75.07
2019-05-06T03:25:13.475Z,75.43
2019-05-06T03:27:46.560Z,75.09
2019-05-06T03:30:16.335Z,75.53
2019-05-06T03:33:21.509Z,74.40
2019-05-06T03:35:27.219Z,75.69
2019-05-06T03:37:44.049Z,75.30
2019-05-06T03:40:13.850Z,75.44
2019-05-06T03:42:42.749Z,76.15
2019-05-06T03:45:13.347Z,76.20
2019-05-06T03:47:43.681Z,76.29
2019-05-06T03:50:13.263Z,76.69
2019-05-06T03:52:43.004Z,76.61
2019-05-06T03:55:13.816Z,75.42
2019-05-06T03:57:42.863Z,75.11
2019-05-06T04:00:16.043Z,75.39
2019-05-06T04:02:44.554Z,75.13
2019-05-06T04:05:13.490Z,74.16
2019-05-06T04:07:45.923Z,73.99
2019-05-06T04:10:13.859Z,73.98
2019-05-06T04:12:44.573Z,73.41
2019-05-06T04:15:14.371Z,73.89
2019-05-06T04:17:47.229Z,73.99
2019-05-06T04:20:23.397Z,73.33
2019-05-06T04:22:54.631Z,73.53
2019-05-06T04:25:43.391Z,72.94
2019-05-06T04:28:13.822Z,72.79
2019-05-06T04:30:43.101Z,73.25
2019-05-06T04:33:16.513Z,73.00
2019-05-06T04:35:43.059Z,72.54
2019-05-06T04:38:14.002Z,73.21
2019-05-06T04:40:43.890Z,73.29
2019-05-06T04:43:13.314Z,73.67
2019-05-06T04:45:43.281Z,74.81
2019-05-06T04:48:14.324Z,75.08
2019-05-06T04:50:44.342Z,75.45
2019-05-06T04:53:13.710Z,75.85
2019-05-06T04:55:43.587Z,75.79
2019-05-06T04:58:13.594Z,75.38
2019-05-06T05:00:44.547Z,75.03
2019-05-06T05:03:13.967Z,74.88
2019-05-06T05:05:44.881Z,73.87
2019-05-06T05:08:13.354Z,74.28
2019-05-06T05:10:52.808Z,73.87
2019-05-06T05:13:32.937Z,74.40
2019-05-06T05:16:12.848Z,74.20
2019-05-06T05:18:42.791Z,74.12
2019-05-06T05:21:11.933Z,73.83
2019-05-06T05:23:42.717Z,74.65
2019-05-06T05:26:12.082Z,74.69
2019-05-06T05:28:42.803Z,74.12
2019-05-06T05:31:12.277Z,74.04
2019-05-06T05:33:42.363Z,74.08
2019-05-06T05:36:12.367Z,74.54
2019-05-06T05:38:42.820Z,74.12
2019-05-06T05:41:12.159Z,74.63
2019-05-06T05:43:54.160Z,74.35
2019-05-06T05:46:22.452Z,74.69
2019-05-06T05:48:55.466Z,74.08
2019-05-06T05:51:23.739Z,73.09
2019-05-06T05:53:52.498Z,72.70
2019-05-06T05:56:24.088Z,71.80
2019-05-06T05:58:53.558Z,72.19
2019-05-06T06:01:23.332Z,72.27
2019-05-06T06:03:52.771Z,72.41
2019-05-06T06:06:22.174Z,72.57
2019-05-06T06:08:52.370Z,72.28
2019-05-06T06:11:28.719Z,72.30
2019-05-06T06:13:58.675Z,72.53
2019-05-06T06:16:34.638Z,71.62
2019-05-06T06:19:12.591Z,69.71
2019-05-06T06:21:45.303Z,69.31
2019-05-06T06:24:24.065Z,68.67
2019-05-06T06:26:52.427Z,68.11
2019-05-06T06:29:22.822Z,67.59
2019-05-06T06:31:52.831Z,67.16
2019-05-06T06:34:32.966Z,66.64
2019-05-06T06:37:19.190Z,66.41
2019-05-06T06:39:49.405Z,66.04
2019-05-06T06:42:22.214Z,65.83
2019-05-06T06:44:52.063Z,65.59
2019-05-06T06:47:22.469Z,65.46
2019-05-06T06:49:53.310Z,65.04
2019-05-06T06:52:23.037Z,64.73
2019-05-06T06:54:52.638Z,64.28
2019-05-06T06:57:22.796Z,62.74
2019-05-06T06:59:53.257Z,62.89
2019-05-06T07:02:23.174Z,62.72
2019-05-06T07:05:05.896Z,63.06
2019-05-06T07:07:43.402Z,62.83
2019-05-06T07:10:09.420Z,62.72
2019-05-06T07:12:37.706Z,62.68
2019-05-06T07:15:07.368Z,62.31
2019-05-06T07:17:35.691Z,61.58
2019-05-06T07:20:15.477Z,61.59
2019-05-06T07:22:43.838Z,62.09
2019-05-06T07:25:12.824Z,61.68
2019-05-06T07:27:42.017Z,61.34
2019-05-06T07:30:12.350Z,60.42
2019-05-06T07:32:42.430Z,60.16
2019-05-06T07:35:12.871Z,59.97
2019-05-06T07:37:42.311Z,60.54
2019-05-06T07:40:12.439Z,60.98
2019-05-06T07:42:43.187Z,61.02
2019-05-06T07:45:13.323Z,61.00
2019-05-06T07:47:43.351Z,61.26
2019-05-06T07:50:13.043Z,61.42
2019-05-06T07:52:43.219Z,61.43
2019-05-06T07:55:12.053Z,61.52
2019-05-06T07:57:42.392Z,62.20
2019-05-06T08:00:12.516Z,62.84
2019-05-06T08:02:42.541Z,63.62
2019-05-06T08:05:12.621Z,64.50
2019-05-06T08:07:42.268Z,64.67
2019-05-06T08:10:10.821Z,64.42
2019-05-06T08:12:39.224Z,64.81
2019-05-06T08:15:07.760Z,63.50
2019-05-06T08:17:37.697Z,63.82
2019-05-06T08:20:07.282Z,64.75
2019-05-06T08:22:46.074Z,65.09
2019-05-06T08:25:14.451Z,65.37
2019-05-06T08:27:42.857Z,67.18
2019-05-06T08:30:12.915Z,66.12
2019-05-06T08:32:42.473Z,66.47
2019-05-06T08:35:12.884Z,66.19
2019-05-06T08:37:42.682Z,66.70
2019-05-06T08:40:12.013Z,66.81
2019-05-06T08:42:42.606Z,66.85
2019-05-06T08:45:12.703Z,67.06
2019-05-06T08:47:42.598Z,66.70
2019-05-06T08:50:15.318Z,66.29
2019-05-06T08:53:00.360Z,65.74
2019-05-06T08:55:36.236Z,66.05
2019-05-06T08:58:04.685Z,66.08
2019-05-06T09:00:34.719Z,66.12
2019-05-06T09:03:04.293Z,66.61
2019-05-06T09:05:33.221Z,67.27
2019-05-06T09:08:03.658Z,65.71
2019-05-06T09:10:32.512Z,65.26
2019-05-06T09:13:01.984Z,65.41
2019-05-06T09:15:32.549Z,64.18
2019-05-06T09:18:02.810Z,63.06
2019-05-06T09:20:32.465Z,62.87
2019-05-06T09:23:04.240Z,62.79
2019-05-06T09:25:32.299Z,62.65
2019-05-06T09:28:08.048Z,62.59
2019-05-06T09:30:38.257Z,61.94
2019-05-06T09:33:06.627Z,60.79
2019-05-06T09:35:35.017Z,59.80
2019-05-06T09:38:03.291Z,59.88
2019-05-06T09:40:31.934Z,58.18
2019-05-06T09:43:04.460Z,57.71
2019-05-06T09:45:30.456Z,55.79
2019-05-06T09:48:06.196Z,55.88
2019-05-06T09:50:37.853Z,55.74
2019-05-06T09:53:07.855Z,55.34
2019-05-06T09:55:54.136Z,52.41
2019-05-06T09:58:22.916Z,51.02
2019-05-06T10:00:55.650Z,51.31
2019-05-06T10:03:23.996Z,49.05
2019-05-06T10:05:53.090Z,50.19
2019-05-06T10:08:22.748Z,46.89
2019-05-06T10:10:56.812Z,45.19
2019-05-06T10:13:21.302Z,43.20
2019-05-06T10:15:52.081Z,45.07
2019-05-06T10:18:22.505Z,41.63
2019-05-06T10:20:50.622Z,39.68
2019-05-06T10:23:18.902Z,40.53
2019-05-06T10:25:47.221Z,40.24
2019-05-06T10:28:23.123Z,38.72
2019-05-06T10:30:50.571Z,37.85
2019-05-06T10:33:26.676Z,33.93
2019-05-06T10:35:57.071Z,31.69
2019-05-06T10:38:32.138Z,31.93
2019-05-06T10:41:07.452Z,27.90
2019-05-06T10:43:45.708Z,24.47
2019-05-06T10:46:14.393Z,23.02
2019-05-06T10:48:42.693Z,22.48
2019-05-06T10:51:22.887Z,19.95
2019-05-06T10:53:51.311Z,17.72
2019-05-06T10:56:27.300Z,15.83
2019-05-06T10:58:57.398Z,16.18
2019-05-06T11:01:30.231Z,14.58
2019-05-06T11:03:57.807Z,16.28
2019-05-06T11:06:26.116Z,15.55
2019-05-06T11:08:54.503Z,16.84
2019-05-06T11:11:32.666Z,20.51
2019-05-06T11:13:52.912Z,21.26
2019-05-06T11:16:23.762Z,24.03
2019-05-06T11:18:53.486Z,23.97
2019-05-06T11:21:22.626Z,25.10
2019-05-06T11:23:52.696Z,25.14
2019-05-06T11:26:23.536Z,25.04
2019-05-06T11:28:55.659Z,26.11
2019-05-06T11:31:33.196Z,25.36
2019-05-06T11:34:15.045Z,26.12
2019-05-06T11:36:47.907Z,26.93
2019-05-06T11:39:16.354Z,27.17
2019-05-06T11:42:01.450Z,26.22
2019-05-06T11:44:14.683Z,23.90
2019-05-06T11:46:43.082Z,23.56
2019-05-06T11:49:12.478Z,24.00
2019-05-06T11:51:43.527Z,23.70
2019-05-06T11:54:17.516Z,23.11
2019-05-06T11:56:48.865Z,26.46
2019-05-06T11:59:12.934Z,31.83
2019-05-06T12:01:43.532Z,28.43
2019-05-06T12:04:13.877Z,29.13
2019-05-06T12:06:42.462Z,32.66
2019-05-06T12:09:16.047Z,33.68
2019-05-06T12:11:43.187Z,31.83
2019-05-06T12:14:12.422Z,33.07
2019-05-06T12:16:40.916Z,32.50
2019-05-06T12:19:09.240Z,31.02
2019-05-06T12:21:37.546Z,29.40
2019-05-06T12:24:05.944Z,30.28
2019-05-06T12:26:34.273Z,30.58
2019-05-06T12:29:02.635Z,30.18
2019-05-06T12:31:32.789Z,30.77
2019-05-06T12:34:02.623Z,33.43
2019-05-06T12:36:32.594Z,34.24
2019-05-06T12:39:19.668Z,35.52
2019-05-06T12:41:57.992Z,36.09
2019-05-06T12:44:26.361Z,37.77
2019-05-06T12:47:08.279Z,38.07
2019-05-06T12:49:36.671Z,39.19
2019-05-06T12:52:05.097Z,40.12
2019-05-06T12:54:33.774Z,40.48
2019-05-06T12:57:03.351Z,41.07
2019-05-06T12:59:31.871Z,40.27
2019-05-06T13:02:02.704Z,39.67
2019-05-06T13:04:46.261Z,41.13
2019-05-06T13:07:02.929Z,40.95
2019-05-06T13:09:32.970Z,40.92
2019-05-06T13:12:03.276Z,40.59
2019-05-06T13:14:33.032Z,39.10
2019-05-06T13:17:02.877Z,39.28
2019-05-06T13:19:32.203Z,39.77
2019-05-06T13:22:03.590Z,39.92
2019-05-06T13:24:32.640Z,38.12
2019-05-06T13:27:02.523Z,37.21
2019-05-06T13:29:35.423Z,35.58
2019-05-06T13:32:02.986Z,36.41
2019-05-06T13:34:33.375Z,36.58
2019-05-06T13:37:01.425Z,37.08
2019-05-06T13:39:29.770Z,36.56
2019-05-06T13:41:58.182Z,36.60
2019-05-06T13:44:26.449Z,34.62
2019-05-06T13:46:55.269Z,36.16
2019-05-06T13:49:27.989Z,34.90
2019-05-06T13:52:03.964Z,34.52
2019-05-06T13:54:30.827Z,31.66
2019-05-06T13:56:59.120Z,32.37
2019-05-06T13:59:30.080Z,28.97
2019-05-06T14:02:17.078Z,29.09
2019-05-06T14:04:45.468Z,27.81
2019-05-06T14:07:13.856Z,28.05
2019-05-06T14:09:43.680Z,28.20
2019-05-06T14:12:12.355Z,29.48
2019-05-06T14:14:43.183Z,28.44
2019-05-06T14:17:12.781Z,28.08
2019-05-06T14:19:42.867Z,27.96
2019-05-06T14:22:12.517Z,26.88
2019-05-06T14:24:43.187Z,29.06
2019-05-06T14:27:12.252Z,28.77
2019-05-06T14:29:42.328Z,28.79
2019-05-06T14:32:12.260Z,29.31
2019-05-06T14:34:43.118Z,29.28
2019-05-06T14:37:10.750Z,29.61
2019-05-06T14:39:53.333Z,29.85
2019-05-06T14:42:13.586Z,29.58
2019-05-06T14:44:43.106Z,29.98
2019-05-06T14:47:25.222Z,29.03
2019-05-06T14:49:56.525Z,29.23
2019-05-06T14:52:24.823Z,29.59
2019-05-06T14:54:54.844Z,29.46
2019-05-06T14:57:24.101Z,31.30
2019-05-06T14:59:55.569Z,30.72
2019-05-06T15:02:26.228Z,31.18
2019-05-06T15:04:54.360Z,31.08
2019-05-06T15:07:22.662Z,31.07
2019-05-06T15:10:02.399Z,31.04
2019-05-06T15:12:23.353Z,32.36
2019-05-06T15:14:52.564Z,31.86
2019-05-06T15:17:22.922Z,32.05
2019-05-06T15:19:52.527Z,32.43
2019-05-06T15:22:22.510Z,33.82
2019-05-06T15:24:53.686Z,34.16
2019-05-06T15:27:22.735Z,34.46
2019-05-06T15:29:54.207Z,34.61
2019-05-06T15:32:27.306Z,35.79
2019-05-06T15:35:13.803Z,36.72
2019-05-06T15:37:46.608Z,38.32
2019-05-06T15:40:15.569Z,39.14
2019-05-06T15:42:43.871Z,37.45
2019-05-06T15:45:12.709Z,36.49
2019-05-06T15:47:42.542Z,35.47
2019-05-06T15:50:12.767Z,35.63
2019-05-06T15:52:43.556Z,36.09
2019-05-06T15:55:12.190Z,36.24
2019-05-06T15:57:43.283Z,35.60
2019-05-06T16:00:13.023Z,36.01
2019-05-06T16:02:41.984Z,34.69
2019-05-06T16:05:13.752Z,35.30
2019-05-06T16:07:43.147Z,34.65
2019-05-06T16:10:13.166Z,34.52
2019-05-06T16:12:41.848Z,35.28
2019-05-06T16:15:12.941Z,35.35
2019-05-06T16:17:42.668Z,36.08
2019-05-06T16:20:12.984Z,37.05
2019-05-06T16:22:44.409Z,37.46
2019-05-06T16:25:13.997Z,37.76
2019-05-06T16:27:44.121Z,38.44
2019-05-06T16:30:14.578Z,39.01
2019-05-06T16:32:43.499Z,39.18
2019-05-06T16:35:14.310Z,39.13
2019-05-06T16:37:42.415Z,38.91
2019-05-06T16:40:12.375Z,39.22
2019-05-06T16:42:45.349Z,38.45
2019-05-06T16:45:12.716Z,38.20
2019-05-06T16:47:44.369Z,37.78
2019-05-06T16:50:15.914Z,37.67
2019-05-06T16:52:45.498Z,37.99
2019-05-06T16:55:18.232Z,38.30
2019-05-06T16:57:48.230Z,37.61
2019-05-06T17:00:18.499Z,37.63
2019-05-06T17:03:00.561Z,37.63
2019-05-06T17:05:33.770Z,38.33
2019-05-06T17:08:02.965Z,38.47
2019-05-06T17:10:34.338Z,38.21
2019-05-06T17:13:03.060Z,38.72
2019-05-06T17:15:32.520Z,37.98
2019-05-06T17:18:02.864Z,38.52
2019-05-06T17:20:32.613Z,38.91
2019-05-06T17:23:02.927Z,39.26
2019-05-06T17:25:32.889Z,38.84
2019-05-06T17:28:02.775Z,39.22
2019-05-06T17:30:51.013Z,39.97
2019-05-06T17:33:42.802Z,39.05
2019-05-06T17:36:13.051Z,39.56
2019-05-06T17:38:45.689Z,39.98
2019-05-06T17:41:14.076Z,39.98
2019-05-06T17:43:44.107Z,40.24
2019-05-06T17:46:14.087Z,40.42
2019-05-06T17:48:44.074Z,42.02
2019-05-06T17:51:14.547Z,42.66
2019-05-06T17:53:47.524Z,43.46
2019-05-06T17:56:15.816Z,42.96
2019-05-06T17:58:44.190Z,45.00
2019-05-06T18:01:14.077Z,46.41
2019-05-06T18:03:42.355Z,46.69
2019-05-06T18:06:13.837Z,45.98
2019-05-06T18:08:43.006Z,46.28
2019-05-06T18:11:13.040Z,46.65
2019-05-06T18:13:41.490Z,47.26
2019-05-06T18:16:09.875Z,46.54
2019-05-06T18:18:38.232Z,46.76
2019-05-06T18:21:06.547Z,47.29
2019-05-06T18:23:34.925Z,46.95
2019-05-06T18:26:03.324Z,48.26
2019-05-06T18:28:32.691Z,47.13
2019-05-06T18:31:03.137Z,48.47
2019-05-06T18:33:32.650Z,47.71
2019-05-06T18:36:02.570Z,49.16
2019-05-06T18:38:33.523Z,47.38
2019-05-06T18:41:02.016Z,48.57
2019-05-06T18:43:32.661Z,47.03
2019-05-06T18:46:02.653Z,48.35
2019-05-06T18:48:32.894Z,49.58
2019-05-06T18:51:02.818Z,50.75
2019-05-06T18:53:32.994Z,50.65
2019-05-06T18:56:02.859Z,49.64
2019-05-06T18:58:31.200Z,50.47
2019-05-06T19:00:59.632Z,50.88
2019-05-06T19:03:31.869Z,51.49
2019-05-06T19:05:59.636Z,51.11
2019-05-06T19:08:32.939Z,52.42
2019-05-06T19:11:02.445Z,52.56
2019-05-06T19:13:33.293Z,53.51
2019-05-06T19:16:02.103Z,51.35
2019-05-06T19:18:30.500Z,53.86
2019-05-06T19:20:58.878Z,54.57
2019-05-06T19:23:27.203Z,54.43
2019-05-06T19:25:55.586Z,53.30
2019-05-06T19:28:24.039Z,53.25
2019-05-06T19:30:54.160Z,52.81
2019-05-06T19:33:22.457Z,52.87
2019-05-06T19:35:52.291Z,53.34
2019-05-06T19:38:23.900Z,54.11
2019-05-06T19:40:52.113Z,54.73
2019-05-06T19:43:21.971Z,55.70
2019-05-06T19:45:50.481Z,55.45
2019-05-06T19:48:18.857Z,57.45
2019-05-06T19:50:47.238Z,56.16
2019-05-06T19:53:15.568Z,59.01
2019-05-06T19:55:46.828Z,60.82
2019-05-06T19:58:13.938Z,58.69
2019-05-06T20:00:42.313Z,60.44
2019-05-06T20:03:12.281Z,60.43
2019-05-06T20:05:42.383Z,60.57
2019-05-06T20:08:24.221Z,61.03
2019-05-06T20:11:02.951Z,61.31
2019-05-06T20:13:32.287Z,61.38
2019-05-06T20:16:02.253Z,60.93
2019-05-06T20:18:32.735Z,62.97
2019-05-06T20:21:00.731Z,63.27
2019-05-06T20:23:29.112Z,60.07
2019-05-06T20:25:57.504Z,61.92
2019-05-06T20:28:25.948Z,61.18
2019-05-06T20:30:54.381Z,61.57
2019-05-06T20:33:22.781Z,62.27
2019-05-06T20:35:52.589Z,61.09
2019-05-06T20:38:23.227Z,60.78
2019-05-06T20:40:51.147Z,60.53
2019-05-06T20:43:21.676Z,60.23
2019-05-06T20:45:52.191Z,61.03
2019-05-06T20:48:20.715Z,62.15
2019-05-06T20:50:49.043Z,61.42
2019-05-06T20:53:17.351Z,61.01
2019-05-06T20:55:45.841Z,61.43
2019-05-06T20:58:14.244Z,61.13
2019-05-06T21:00:43.120Z,61.69
2019-05-06T21:03:12.344Z,61.39
2019-05-06T21:05:43.216Z,62.98
2019-05-06T21:08:12.878Z,62.23
2019-05-06T21:10:42.507Z,61.88
2019-05-06T21:13:13.128Z,63.91
2019-05-06T21:15:43.196Z,62.56
2019-05-06T21:18:12.117Z,63.78
2019-05-06T21:20:40.736Z,62.86
2019-05-06T21:23:09.018Z,62.66
2019-05-06T21:25:37.439Z,62.95
2019-05-06T21:28:05.733Z,63.01
2019-05-06T21:30:34.057Z,63.01
2019-05-06T21:33:02.422Z,63.16
2019-05-06T21:35:32.972Z,63.46
2019-05-06T21:38:02.517Z,64.24
2019-05-06T21:40:32.279Z,65.82
2019-05-06T21:43:02.076Z,65.79
2019-05-06T21:45:32.887Z,65.42
2019-05-06T21:48:02.748Z,66.35
2019-05-06T21:50:32.874Z,66.29
2019-05-06T21:53:02.689Z,64.94
2019-05-06T21:55:32.335Z,66.34
2019-05-06T21:58:02.128Z,66.15
2019-05-06T22:00:38.308Z,66.28
2019-05-06T22:03:06.677Z,65.85
2019-05-06T22:05:34.990Z,65.90
2019-05-06T22:08:03.360Z,67.11
2019-05-06T22:10:32.517Z,67.60
2019-05-06T22:13:00.858Z,67.99
2019-05-06T22:15:29.153Z,68.54
2019-05-06T22:17:57.568Z,68.39
2019-05-06T22:20:25.882Z,67.51
2019-05-06T22:22:54.217Z,67.25
2019-05-06T22:25:22.511Z,67.24
2019-05-06T22:27:51.959Z,67.14
2019-05-06T22:30:23.714Z,67.14
2019-05-06T22:32:52.667Z,66.40
2019-05-06T22:35:23.053Z,66.27
2019-05-06T22:37:52.932Z,65.86
2019-05-06T22:40:23.549Z,67.03
2019-05-06T22:42:52.751Z,67.37
2019-05-06T22:45:22.234Z,68.59
2019-05-06T22:47:50.833Z,68.65
2019-05-06T22:50:22.456Z,68.14
2019-05-06T22:52:49.300Z,67.59
2019-05-06T22:55:17.621Z,67.56
2019-05-06T22:57:45.914Z,67.56
2019-05-06T23:00:17.490Z,68.28
2019-05-06T23:02:53.139Z,68.51
2019-05-06T23:05:23.120Z,68.62
2019-05-06T23:07:53.239Z,68.42
2019-05-06T23:10:24.530Z,68.35
2019-05-06T23:12:52.375Z,68.18
2019-05-06T23:15:20.728Z,68.45
2019-05-06T23:17:49.034Z,66.96
2019-05-06T23:20:17.330Z,67.05
2019-05-06T23:22:45.632Z,68.73
2019-05-06T23:25:14.054Z,68.54
2019-05-06T23:27:44.223Z,67.53
2019-05-06T23:30:12.842Z,67.22
2019-05-06T23:32:42.224Z,67.92
2019-05-06T23:35:12.880Z,69.13
2019-05-06T23:38:17.501Z,69.39
2019-05-06T23:41:22.554Z,69.37
2019-05-06T23:44:27.238Z,68.93
2019-05-06T23:47:32.168Z,69.81
2019-05-06T23:50:36.902Z,70.21
2019-05-06T23:53:41.385Z,70.33
2019-05-06T23:56:43.970Z,70.66
2019-05-06T23:59:17.266Z,70.17
